메인 페이지
METAR-TAF:

METAR-TAF

공항 :

캔자스시티, 미주리, 미국

위도: 39-17-50N, 경도: 094-43-50W, 고도: 312m

현재 날씨관측

예보는 28분 전, 07:53시(UTC)에 발표되었습니다.
서남서7kt
온도 21°C
습도 88%
기압 1011 hPa
시정: 16.1km
맑음

METAR: KMCI 200753Z 24007KT 10SM CLR 21/19 A2986 RMK AO2 SLP100 T02060189 $

시각: 03:21 (08:21 UTC)

예보

예보는 3 시간 1분 전, 05:20시(UTC)에 발표되었습니다.
예보 대상 시간: 20일 06시부터 21일 06시까지 (UTC)
남서6kt
시정: 10km
맑음
20일 0800시부터 (UTC)
여러 방향의 바람 4kt
시정: 10km
고도 5000ft 상공 구름 보통
시계 내 소나기
20일 1200시부터 (UTC)
6kt
시정: 10km
고도 25000ft 상공 구름 조금
21일 0000시부터 (UTC)
북북서6kt
시정: 10km
고도 25000ft 상공 구름 조금

TAF: KMCI 200520Z 2006/2106 22006KT P6SM SKC FM200800 VRB04KT P6SM VCSH SCT050 FM201200 01006KT P6SM FEW250 FM210000 34006KT P6SM FEW250

4,000개 이상의 공항 관측 자료 및 예보 (METAR 및 TAF 보고).

지도상에서 검색 가능한 기상관측소가 노란 점과 빨간 점으로 표시되어 있습니다.

기상관측소 명을 보려면 표시 위로 마우스를 이동하세요.

날씨 관측과 예보를 보려면 클릭하세요.

지도 변경 : 확대하려면 엑스 표시가 있는 녹색 버튼, 축소하려면 빼기 표시가 있는 녹색 버튼, 다음 페이지의 지도를 보려면 녹색 화살표를 클릭하세요.


METAR-TAF: